createdAt,value
2018-07-07T00:01:04.381Z,9.00
2018-07-07T00:03:32.640Z,9.13
2018-07-07T00:06:00.925Z,9.90
2018-07-07T00:08:29.192Z,8.97
2018-07-07T00:10:58.692Z,8.83
2018-07-07T00:13:26.984Z,7.63
2018-07-07T00:15:55.270Z,7.37
2018-07-07T00:18:23.537Z,7.50
2018-07-07T00:20:51.824Z,7.93
2018-07-07T00:23:20.085Z,8.03
2018-07-07T00:25:48.355Z,7.63
2018-07-07T00:28:16.658Z,7.90
2018-07-07T00:30:44.945Z,7.70
2018-07-07T00:33:13.205Z,7.40
2018-07-07T00:35:41.502Z,6.93
2018-07-07T00:38:09.788Z,8.20
2018-07-07T00:40:38.059Z,7.73
2018-07-07T00:43:06.339Z,6.97
2018-07-07T00:45:34.583Z,7.50
2018-07-07T00:48:02.936Z,7.57
2018-07-07T00:50:31.200Z,7.43
2018-07-07T00:52:59.444Z,7.93
2018-07-07T00:55:27.693Z,7.60
2018-07-07T00:57:55.935Z,7.93
2018-07-07T01:00:25.054Z,7.43
2018-07-07T01:02:53.325Z,7.40
2018-07-07T01:05:32.757Z,7.53
2018-07-07T01:08:01.019Z,7.40
2018-07-07T01:10:29.281Z,8.37
2018-07-07T01:12:57.538Z,7.93
2018-07-07T01:15:25.796Z,7.80
2018-07-07T01:17:54.060Z,7.63
2018-07-07T01:20:22.320Z,7.80
2018-07-07T01:22:50.590Z,7.83
2018-07-07T01:25:18.881Z,8.47
2018-07-07T01:27:47.141Z,8.23
2018-07-07T01:30:15.394Z,8.33
2018-07-07T01:32:43.666Z,8.67
2018-07-07T01:35:11.930Z,8.47
2018-07-07T01:37:40.216Z,9.83
2018-07-07T01:40:08.453Z,8.80
2018-07-07T01:42:36.716Z,9.07
2018-07-07T01:45:04.996Z,9.03
2018-07-07T01:47:33.256Z,8.67
2018-07-07T01:50:01.518Z,9.97
2018-07-07T01:52:29.769Z,10.10
2018-07-07T01:54:58.021Z,9.60
2018-07-07T01:57:26.272Z,10.30
2018-07-07T01:59:54.533Z,9.57
2018-07-07T02:02:22.809Z,9.27
2018-07-07T02:04:51.096Z,9.17
2018-07-07T02:07:19.365Z,10.17
2018-07-07T02:09:47.619Z,9.20
2018-07-07T02:12:15.900Z,9.27
2018-07-07T02:14:44.149Z,8.83
2018-07-07T02:17:12.429Z,9.87
2018-07-07T02:19:40.680Z,9.67
2018-07-07T02:22:09.008Z,9.00
2018-07-07T02:24:37.276Z,9.27
2018-07-07T02:27:05.576Z,9.37
2018-07-07T02:29:33.832Z,9.57
2018-07-07T02:32:02.128Z,10.13
2018-07-07T02:34:30.385Z,9.57
2018-07-07T02:36:58.633Z,9.57
2018-07-07T02:39:26.893Z,10.03
2018-07-07T02:41:55.151Z,9.00
2018-07-07T02:44:23.408Z,10.23
2018-07-07T02:46:51.662Z,8.77
2018-07-07T02:49:19.936Z,9.20
2018-07-07T02:51:48.190Z,9.27
2018-07-07T02:54:16.477Z,9.27
2018-07-07T02:56:44.722Z,9.17
2018-07-07T02:59:12.971Z,9.33
2018-07-07T03:01:41.225Z,8.63
2018-07-07T03:04:09.500Z,9.60
2018-07-07T03:06:37.825Z,9.97
2018-07-07T03:09:06.097Z,9.30
2018-07-07T03:11:34.381Z,8.63
2018-07-07T03:14:02.653Z,8.53
2018-07-07T03:16:30.928Z,9.57
2018-07-07T03:18:59.192Z,9.47
2018-07-07T03:21:27.461Z,8.97
2018-07-07T03:23:55.721Z,9.40
2018-07-07T03:26:24.000Z,8.73
2018-07-07T03:28:52.540Z,8.33
2018-07-07T03:31:20.807Z,8.80
2018-07-07T03:33:49.061Z,9.20
2018-07-07T03:36:17.320Z,9.77
2018-07-07T03:38:45.585Z,9.30
2018-07-07T03:41:13.871Z,9.93
2018-07-07T03:43:42.107Z,9.07
2018-07-07T03:46:10.388Z,9.07
2018-07-07T03:48:41.641Z,9.50
2018-07-07T03:51:09.925Z,8.97
2018-07-07T03:53:38.206Z,8.73
2018-07-07T03:56:06.511Z,8.00
2018-07-07T03:58:34.760Z,8.20
2018-07-07T04:01:03.027Z,7.53
2018-07-07T04:03:31.281Z,7.50
2018-07-07T04:05:59.644Z,7.50
2018-07-07T04:08:27.911Z,7.63
2018-07-07T04:10:56.173Z,7.37
2018-07-07T04:13:24.426Z,8.30
2018-07-07T04:15:52.682Z,7.20
2018-07-07T04:18:32.421Z,7.77
2018-07-07T04:21:01.360Z,7.30
2018-07-07T04:23:29.954Z,6.67
2018-07-07T04:25:58.339Z,7.43
2018-07-07T04:28:26.676Z,7.07
2018-07-07T04:30:54.932Z,8.00
2018-07-07T04:33:23.209Z,7.57
2018-07-07T04:35:51.448Z,7.83
2018-07-07T04:38:19.968Z,8.23
2018-07-07T04:40:48.757Z,8.27
2018-07-07T04:43:17.678Z,8.53
2018-07-07T04:45:46.112Z,7.90
2018-07-07T04:48:14.805Z,7.87
2018-07-07T04:50:43.061Z,8.60
2018-07-07T04:53:11.317Z,9.20
2018-07-07T04:55:39.609Z,8.53
2018-07-07T04:58:07.898Z,9.00
2018-07-07T05:00:36.177Z,9.50
2018-07-07T05:03:04.523Z,9.30
2018-07-07T05:05:32.786Z,9.77
2018-07-07T05:08:01.027Z,9.77
2018-07-07T05:10:29.301Z,10.07
2018-07-07T05:12:57.565Z,10.43
2018-07-07T05:15:25.830Z,10.37
2018-07-07T05:17:54.088Z,9.27
2018-07-07T05:20:22.364Z,9.70
2018-07-07T05:22:50.648Z,9.53
2018-07-07T05:25:18.893Z,9.70
2018-07-07T05:27:47.184Z,9.20
2018-07-07T05:30:15.464Z,9.97
2018-07-07T05:32:43.743Z,10.40
2018-07-07T05:35:12.024Z,9.27
2018-07-07T05:37:40.275Z,10.10
2018-07-07T05:40:08.545Z,10.23
2018-07-07T05:42:36.795Z,10.00
2018-07-07T05:45:05.356Z,10.00
2018-07-07T05:47:33.640Z,9.87
2018-07-07T05:50:01.952Z,10.07
2018-07-07T05:52:30.181Z,9.90
2018-07-07T05:54:58.436Z,9.87
2018-07-07T05:57:26.753Z,10.40
2018-07-07T05:59:54.960Z,10.43
2018-07-07T06:02:23.243Z,12.67
2018-07-07T06:04:51.490Z,9.97
2018-07-07T06:07:19.740Z,10.37
2018-07-07T06:09:48.011Z,10.07
2018-07-07T06:12:16.273Z,9.73
2018-07-07T06:14:44.577Z,9.93
2018-07-07T06:17:12.918Z,10.27
2018-07-07T06:19:41.206Z,10.00
2018-07-07T06:22:09.467Z,16.33
2018-07-07T06:24:37.751Z,9.57
2018-07-07T06:27:06.144Z,10.53
2018-07-07T06:29:34.421Z,9.17
2018-07-07T06:32:02.685Z,8.73
2018-07-07T06:34:30.941Z,9.53
2018-07-07T06:36:59.225Z,9.07
2018-07-07T06:39:27.477Z,8.37
2018-07-07T06:41:55.732Z,9.53
2018-07-07T06:44:23.984Z,8.80
2018-07-07T06:46:52.256Z,8.13
2018-07-07T06:49:20.531Z,8.10
2018-07-07T06:51:48.774Z,7.63
2018-07-07T06:54:17.057Z,8.20
2018-07-07T06:56:45.324Z,7.93
2018-07-07T06:59:13.600Z,8.10
2018-07-07T07:01:41.848Z,7.47
2018-07-07T07:04:10.109Z,7.97
2018-07-07T07:06:38.369Z,8.10
2018-07-07T07:09:07.909Z,7.67
2018-07-07T07:11:36.203Z,7.57
2018-07-07T07:14:04.517Z,7.73
2018-07-07T07:16:32.791Z,7.90
2018-07-07T07:19:01.126Z,8.50
2018-07-07T07:21:29.453Z,8.30
2018-07-07T07:23:57.793Z,8.10
2018-07-07T07:26:26.165Z,8.27
2018-07-07T07:28:54.443Z,8.97
2018-07-07T07:31:22.847Z,8.60
2018-07-07T07:33:51.116Z,8.60
2018-07-07T07:36:36.784Z,8.57
2018-07-07T07:39:05.466Z,8.17
2018-07-07T07:41:33.992Z,8.33
2018-07-07T07:44:02.381Z,7.87
2018-07-07T07:46:31.045Z,7.30
2018-07-07T07:48:59.318Z,8.10
2018-07-07T07:51:27.796Z,7.73
2018-07-07T07:53:56.474Z,8.20
2018-07-07T07:56:25.235Z,8.07
2018-07-07T07:58:53.547Z,7.80
2018-07-07T08:01:22.110Z,7.87
2018-07-07T08:03:50.372Z,8.13
2018-07-07T08:06:18.673Z,7.43
2018-07-07T08:08:46.949Z,6.90
2018-07-07T08:11:15.212Z,6.50
2018-07-07T08:13:43.482Z,7.73
2018-07-07T08:16:11.781Z,6.10
2018-07-07T08:18:40.067Z,6.37
2018-07-07T08:21:08.316Z,5.53
2018-07-07T08:23:36.585Z,5.47
2018-07-07T08:26:05.005Z,4.97
2018-07-07T08:28:33.335Z,5.97
2018-07-07T08:31:01.532Z,5.50
2018-07-07T08:33:29.772Z,4.90
2018-07-07T08:35:58.021Z,5.10
2018-07-07T08:38:26.280Z,4.70
2018-07-07T08:40:54.561Z,4.37
2018-07-07T08:43:22.832Z,4.30
2018-07-07T08:45:51.125Z,4.50
2018-07-07T08:48:19.360Z,4.37
2018-07-07T08:50:47.608Z,4.20
2018-07-07T08:53:15.857Z,4.57
2018-07-07T08:55:44.138Z,4.17
2018-07-07T08:58:12.421Z,4.20
2018-07-07T09:00:40.697Z,4.57
2018-07-07T09:03:15.621Z,4.90
2018-07-07T09:05:43.878Z,4.37
2018-07-07T09:08:12.145Z,3.70
2018-07-07T09:10:40.436Z,4.50
2018-07-07T09:13:08.697Z,3.83
2018-07-07T09:15:36.961Z,4.47
2018-07-07T09:18:05.445Z,4.23
2018-07-07T09:20:33.718Z,4.00
2018-07-07T09:23:01.995Z,4.07
2018-07-07T09:25:30.261Z,4.40
2018-07-07T09:27:58.517Z,3.67
2018-07-07T09:30:26.782Z,4.50
2018-07-07T09:32:55.075Z,4.17
2018-07-07T09:35:23.339Z,4.50
2018-07-07T09:37:51.608Z,4.27
2018-07-07T09:40:19.852Z,4.30
2018-07-07T09:42:48.116Z,4.10
2018-07-07T09:45:16.392Z,4.20
2018-07-07T09:47:44.633Z,4.30
2018-07-07T09:50:12.897Z,4.30
2018-07-07T09:52:41.184Z,4.00
2018-07-07T09:55:09.470Z,4.40
2018-07-07T09:57:37.737Z,3.93
2018-07-07T10:00:10.334Z,4.00
2018-07-07T10:02:38.584Z,4.80
2018-07-07T10:05:06.976Z,4.13
2018-07-07T10:07:35.265Z,4.30
2018-07-07T10:10:03.555Z,4.13
2018-07-07T10:12:31.872Z,4.27
2018-07-07T10:15:00.138Z,4.27
2018-07-07T10:17:28.381Z,3.90
2018-07-07T10:19:56.638Z,4.23
2018-07-07T10:22:24.977Z,4.40
2018-07-07T10:24:53.229Z,4.03
2018-07-07T10:27:21.485Z,3.87
2018-07-07T10:29:49.880Z,3.60
2018-07-07T10:32:18.148Z,3.90
2018-07-07T10:34:46.400Z,4.20
2018-07-07T10:37:14.684Z,4.13
2018-07-07T10:39:42.932Z,4.30
2018-07-07T10:42:11.206Z,4.20
2018-07-07T10:44:39.468Z,4.07
2018-07-07T10:47:07.760Z,3.70
2018-07-07T10:49:36.020Z,4.00
2018-07-07T10:52:04.270Z,3.80
2018-07-07T10:54:32.522Z,3.80
2018-07-07T10:57:00.773Z,3.60
2018-07-07T10:59:29.028Z,3.87
2018-07-07T11:01:57.279Z,3.90
2018-07-07T11:04:25.539Z,3.93
2018-07-07T11:09:28.623Z,3.80
2018-07-07T11:11:56.911Z,3.60
2018-07-07T11:14:25.139Z,4.40
2018-07-07T11:16:53.393Z,3.30
2018-07-07T11:19:21.645Z,3.60
2018-07-07T11:21:49.900Z,3.30
2018-07-07T11:24:18.163Z,3.83
2018-07-07T11:26:46.408Z,3.33
2018-07-07T11:29:14.677Z,3.63
2018-07-07T11:31:43.137Z,3.43
2018-07-07T11:34:11.404Z,3.70
2018-07-07T11:36:39.864Z,3.60
2018-07-07T11:39:08.325Z,3.50
2018-07-07T11:41:36.640Z,3.70
2018-07-07T11:44:04.952Z,3.40
2018-07-07T11:46:33.262Z,3.70
2018-07-07T11:49:01.509Z,3.83
2018-07-07T11:51:29.792Z,3.70
2018-07-07T11:53:58.046Z,3.67
2018-07-07T11:56:26.289Z,3.60
2018-07-07T11:58:54.576Z,3.13
2018-07-07T12:01:22.831Z,3.63
2018-07-07T12:03:51.101Z,3.27
2018-07-07T12:06:19.360Z,3.47
2018-07-07T12:08:47.607Z,3.83
2018-07-07T12:11:15.909Z,3.03
2018-07-07T12:13:44.153Z,2.97
2018-07-07T12:16:12.408Z,3.23
2018-07-07T12:18:40.687Z,3.57
2018-07-07T12:21:08.946Z,3.73
2018-07-07T12:23:37.207Z,3.57
2018-07-07T12:26:05.552Z,3.60
2018-07-07T12:28:33.832Z,3.50
2018-07-07T12:31:02.093Z,3.30
2018-07-07T12:33:30.361Z,3.40
2018-07-07T12:35:58.632Z,3.50
2018-07-07T12:38:26.896Z,3.40
2018-07-07T12:40:55.175Z,3.47
2018-07-07T12:43:23.433Z,3.40
2018-07-07T12:45:51.706Z,3.60
2018-07-07T12:48:19.982Z,3.10
2018-07-07T12:50:48.228Z,3.77
2018-07-07T12:53:16.477Z,2.93
2018-07-07T12:55:44.738Z,3.27
2018-07-07T12:58:13.009Z,3.90
2018-07-07T13:00:41.270Z,3.80
2018-07-07T13:03:09.500Z,3.60
2018-07-07T13:05:37.796Z,3.60
2018-07-07T13:08:06.098Z,3.33
2018-07-07T13:10:34.381Z,4.53
2018-07-07T13:13:02.647Z,3.30
2018-07-07T13:15:30.904Z,3.10
2018-07-07T13:17:59.220Z,3.03
2018-07-07T13:20:27.509Z,3.07
2018-07-07T13:22:55.762Z,3.00
2018-07-07T13:25:24.096Z,3.37
2018-07-07T13:27:52.390Z,3.40
2018-07-07T13:30:20.683Z,3.30
2018-07-07T13:32:48.941Z,3.67
2018-07-07T13:35:17.206Z,3.30
2018-07-07T13:37:45.557Z,3.60
2018-07-07T13:40:13.836Z,3.93
2018-07-07T13:42:42.090Z,3.73
2018-07-07T13:45:10.388Z,3.50
2018-07-07T13:47:38.666Z,3.60
2018-07-07T13:50:06.961Z,3.73
2018-07-07T13:52:35.257Z,3.40
2018-07-07T13:55:03.547Z,3.53
2018-07-07T13:57:31.801Z,3.37
2018-07-07T14:00:00.052Z,3.80
2018-07-07T14:02:28.392Z,3.53
2018-07-07T14:04:56.683Z,3.77
2018-07-07T14:07:24.980Z,3.60
2018-07-07T14:09:53.257Z,3.80
2018-07-07T14:12:21.516Z,3.67
2018-07-07T14:14:49.762Z,3.57
2018-07-07T14:17:18.169Z,3.70
2018-07-07T14:19:46.319Z,4.00
2018-07-07T14:22:14.564Z,3.60
2018-07-07T14:24:42.851Z,3.60
2018-07-07T14:27:11.133Z,4.30
2018-07-07T14:29:39.511Z,4.07
2018-07-07T14:32:07.777Z,4.27
2018-07-07T14:34:36.029Z,4.10
2018-07-07T14:37:04.340Z,4.03
2018-07-07T14:39:53.048Z,4.17
2018-07-07T14:42:41.929Z,4.30
2018-07-07T14:45:14.594Z,4.37
2018-07-07T14:47:43.530Z,3.83
2018-07-07T14:50:11.991Z,3.73
2018-07-07T14:52:40.374Z,4.10
2018-07-07T14:55:08.688Z,4.70
2018-07-07T14:57:37.174Z,4.07
2018-07-07T15:00:06.210Z,4.30
2018-07-07T15:02:34.565Z,4.33
2018-07-07T15:05:03.180Z,3.97
2018-07-07T15:07:31.579Z,3.83
2018-07-07T15:09:59.907Z,3.63
2018-07-07T15:12:28.137Z,3.80
2018-07-07T15:14:56.386Z,4.10
2018-07-07T15:17:24.652Z,4.13
2018-07-07T15:19:52.913Z,4.07
2018-07-07T15:22:21.189Z,4.20
2018-07-07T15:24:49.448Z,4.30
2018-07-07T15:27:17.721Z,4.40
2018-07-07T15:29:46.004Z,4.43
2018-07-07T15:32:14.258Z,3.93
2018-07-07T15:34:42.544Z,4.90
2018-07-07T15:37:10.862Z,4.30
2018-07-07T15:39:39.131Z,4.63
2018-07-07T15:42:07.404Z,4.27
2018-07-07T15:44:35.692Z,4.73
2018-07-07T15:47:04.046Z,4.53
2018-07-07T15:49:32.300Z,4.53
2018-07-07T15:52:00.573Z,4.23
2018-07-07T15:54:28.841Z,4.10
2018-07-07T15:56:57.126Z,4.17
2018-07-07T15:59:25.385Z,4.20
2018-07-07T16:01:53.681Z,4.30
2018-07-07T16:04:21.951Z,4.50
2018-07-07T16:06:50.218Z,4.20
2018-07-07T16:09:18.480Z,4.20
2018-07-07T16:11:46.735Z,3.97
2018-07-07T16:14:15.016Z,4.57
2018-07-07T16:16:43.285Z,4.13
2018-07-07T16:19:11.554Z,4.47
2018-07-07T16:21:39.880Z,4.10
2018-07-07T16:24:08.148Z,4.50
2018-07-07T16:26:36.540Z,4.62
2018-07-07T16:29:04.843Z,4.78
2018-07-07T16:31:33.121Z,4.30
2018-07-07T16:34:01.537Z,4.28
2018-07-07T16:36:29.801Z,4.45
2018-07-07T16:38:58.129Z,4.58
2018-07-07T16:41:27.292Z,4.78
2018-07-07T16:43:55.599Z,4.40
2018-07-07T16:46:23.905Z,4.30
2018-07-07T16:48:52.178Z,5.50
2018-07-07T16:51:20.942Z,4.35
2018-07-07T16:53:49.445Z,4.47
2018-07-07T16:56:18.793Z,4.42
2018-07-07T16:58:47.148Z,4.15
2018-07-07T17:01:15.885Z,4.37
2018-07-07T17:03:44.232Z,4.33
2018-07-07T17:06:12.677Z,3.98
2018-07-07T17:08:41.745Z,4.15
2018-07-07T17:11:10.557Z,4.08
2018-07-07T17:13:39.513Z,4.05
2018-07-07T17:16:07.968Z,4.17
2018-07-07T17:18:36.273Z,4.00
2018-07-07T17:21:04.536Z,4.17
2018-07-07T17:23:32.991Z,4.40
2018-07-07T17:26:01.294Z,4.37
2018-07-07T17:28:29.856Z,4.12
2018-07-07T17:30:59.722Z,3.90
2018-07-07T17:33:28.033Z,4.08
2018-07-07T17:35:56.532Z,3.92
2018-07-07T17:38:25.740Z,3.45
2018-07-07T17:40:54.140Z,4.22
2018-07-07T17:43:22.464Z,3.90
2018-07-07T17:45:51.400Z,4.37
2018-07-07T17:48:19.704Z,4.43
2018-07-07T17:50:48.006Z,4.23
2018-07-07T17:53:16.867Z,4.13
2018-07-07T17:55:45.237Z,4.13
2018-07-07T17:58:13.652Z,3.97
2018-07-07T18:00:42.895Z,4.30
2018-07-07T18:03:11.217Z,4.40
2018-07-07T18:05:39.520Z,3.90
2018-07-07T18:08:07.792Z,4.00
2018-07-07T18:10:36.111Z,3.73
2018-07-07T18:13:04.540Z,4.17
2018-07-07T18:15:32.820Z,3.83
2018-07-07T18:18:01.094Z,3.67
2018-07-07T18:20:29.402Z,3.90
2018-07-07T18:22:57.692Z,3.30
2018-07-07T18:25:25.989Z,3.67
2018-07-07T18:27:54.256Z,3.63
2018-07-07T18:30:22.546Z,3.77
2018-07-07T18:32:50.819Z,4.00
2018-07-07T18:35:19.105Z,3.90
2018-07-07T18:37:47.492Z,4.00
2018-07-07T18:40:15.625Z,4.33
2018-07-07T18:42:50.443Z,4.30
2018-07-07T18:45:18.820Z,4.03
2018-07-07T18:47:47.116Z,4.57
2018-07-07T18:50:15.381Z,4.23
2018-07-07T18:52:43.700Z,4.30
2018-07-07T18:55:11.930Z,4.40
2018-07-07T18:57:40.237Z,4.13
2018-07-07T19:00:08.510Z,4.20
2018-07-07T19:02:36.814Z,4.33
2018-07-07T19:05:05.060Z,4.40
2018-07-07T19:07:33.338Z,4.50
2018-07-07T19:10:01.624Z,4.10
2018-07-07T19:12:29.888Z,4.63
2018-07-07T19:15:03.449Z,4.77
2018-07-07T19:17:31.703Z,4.80
2018-07-07T19:19:59.953Z,5.37
2018-07-07T19:22:33.353Z,6.67
2018-07-07T19:25:06.972Z,6.30
2018-07-07T19:27:35.232Z,6.60
2018-07-07T19:30:03.564Z,6.27
2018-07-07T19:32:37.222Z,5.73
2018-07-07T19:35:10.949Z,4.93
2018-07-07T19:37:39.168Z,5.27
2018-07-07T19:40:07.433Z,5.10
2018-07-07T19:42:35.765Z,5.10
2018-07-07T19:45:04.046Z,5.47
2018-07-07T19:47:32.292Z,5.70
2018-07-07T19:50:00.585Z,5.53
2018-07-07T19:52:28.845Z,5.97
2018-07-07T19:54:57.100Z,6.10
2018-07-07T19:57:25.398Z,6.10
2018-07-07T19:59:53.636Z,6.73
2018-07-07T20:02:21.917Z,8.27
2018-07-07T20:04:50.187Z,6.33
2018-07-07T20:07:18.672Z,6.67
2018-07-07T20:09:46.924Z,7.47
2018-07-07T20:12:15.196Z,7.27
2018-07-07T20:14:43.436Z,7.57
2018-07-07T20:17:12.945Z,7.63
2018-07-07T20:20:57.669Z,6.97
2018-07-07T20:23:28.009Z,7.50
2018-07-07T20:26:01.706Z,7.70
2018-07-07T20:28:35.289Z,7.90
2018-07-07T20:31:03.581Z,7.30
2018-07-07T20:33:31.843Z,7.27
2018-07-07T20:36:00.099Z,7.57
2018-07-07T20:38:28.360Z,7.40
2018-07-07T20:41:03.174Z,8.00
2018-07-07T20:43:31.432Z,7.10
2018-07-07T20:45:59.685Z,8.43
2018-07-07T20:48:27.940Z,8.30
2018-07-07T20:50:56.221Z,8.17
2018-07-07T20:53:24.524Z,8.03
2018-07-07T20:55:52.776Z,7.77
2018-07-07T20:58:21.038Z,8.33
2018-07-07T21:00:49.304Z,7.93
2018-07-07T21:03:17.561Z,8.07
2018-07-07T21:05:45.821Z,8.20
2018-07-07T21:08:14.074Z,8.33
2018-07-07T21:10:42.336Z,7.93
2018-07-07T21:13:10.608Z,7.77
2018-07-07T21:15:38.840Z,7.93
2018-07-07T21:18:07.180Z,8.07
2018-07-07T21:20:35.503Z,8.17
2018-07-07T21:23:03.814Z,7.60
2018-07-07T21:25:32.079Z,8.00
2018-07-07T21:28:00.336Z,8.53
2018-07-07T21:30:28.626Z,8.20
2018-07-07T21:32:56.880Z,7.73
2018-07-07T21:35:25.140Z,8.60
2018-07-07T21:37:53.443Z,7.73
2018-07-07T21:40:21.689Z,7.87
2018-07-07T21:42:56.168Z,7.37
2018-07-07T21:45:24.465Z,7.87
2018-07-07T21:47:52.752Z,7.97
2018-07-07T21:50:21.096Z,7.80
2018-07-07T21:52:49.517Z,8.50
2018-07-07T21:55:17.813Z,8.33
2018-07-07T21:57:51.461Z,7.67
2018-07-07T22:00:25.088Z,7.43
2018-07-07T22:02:58.720Z,7.93
2018-07-07T22:05:31.833Z,7.40
2018-07-07T22:08:01.177Z,7.80
2018-07-07T22:10:29.470Z,8.13
2018-07-07T22:12:57.780Z,7.63
2018-07-07T22:15:26.049Z,7.70
2018-07-07T22:17:54.313Z,7.70
2018-07-07T22:20:29.240Z,7.10
2018-07-07T22:22:57.509Z,7.40
2018-07-07T22:25:25.781Z,8.30
2018-07-07T22:27:54.038Z,7.73
2018-07-07T22:30:22.301Z,7.57
2018-07-07T22:32:50.629Z,7.50
2018-07-07T22:37:26.118Z,7.57
2018-07-07T22:39:54.380Z,7.57
2018-07-07T22:45:19.184Z,8.00
2018-07-07T22:47:47.475Z,8.33
2018-07-07T22:50:15.778Z,7.93
2018-07-07T22:52:44.060Z,7.97
2018-07-07T22:55:12.316Z,8.27
2018-07-07T22:57:40.582Z,7.90
2018-07-07T23:00:08.885Z,8.67
2018-07-07T23:02:37.156Z,9.13
2018-07-07T23:05:05.536Z,9.40
2018-07-07T23:07:33.790Z,9.13
2018-07-07T23:10:02.039Z,9.17
2018-07-07T23:12:30.315Z,8.60
2018-07-07T23:14:58.595Z,9.63
2018-07-07T23:17:26.839Z,9.30
2018-07-07T23:19:55.109Z,8.73
2018-07-07T23:22:41.310Z,9.07
2018-07-07T23:25:09.584Z,9.70
2018-07-07T23:27:37.869Z,9.07
2018-07-07T23:30:06.185Z,8.83
2018-07-07T23:32:34.436Z,8.60
2018-07-07T23:35:02.693Z,8.63
2018-07-07T23:37:30.957Z,9.20
2018-07-07T23:39:59.224Z,9.03
2018-07-07T23:42:27.505Z,8.63
2018-07-07T23:44:55.753Z,8.40
2018-07-07T23:47:24.028Z,9.27
2018-07-07T23:49:52.290Z,8.90
2018-07-07T23:52:20.704Z,9.07
2018-07-07T23:54:48.961Z,8.63
2018-07-07T23:57:17.281Z,9.17
2018-07-07T23:59:45.557Z,8.67
